Time;durP1;ratioP1;P1;durP2;ratioP2;P2;SDS_P1;SDS_P2;PMS_P1;PMS_P2;Temp;Humidity;BMP_temperature;BMP_pressure;BME280_temperature;BME280_humidity;BME280_pressure;Samples;Min_cycle;Max_cycle;Signal;HPM_P1;HPM_P2
2023/08/06 00:00:29;;;;;;;2.53;1.15;;;20.90;71.70;;;;;;2278908;56;20974;-69
2023/08/06 00:02:56;;;;;;;3.00;1.20;;;20.90;71.70;;;;;;2277501;56;21059;-70
2023/08/06 00:05:23;;;;;;;3.20;1.30;;;20.90;71.70;;;;;;2512697;55;21027;-67
2023/08/06 00:07:50;;;;;;;3.28;1.30;;;20.90;71.70;;;;;;2496727;55;21039;-68
2023/08/06 00:10:16;;;;;;;2.67;1.20;;;20.90;71.70;;;;;;2490058;55;20925;-68
2023/08/06 00:12:43;;;;;;;3.92;1.60;;;20.90;71.70;;;;;;2237065;57;21025;-69
2023/08/06 00:15:10;;;;;;;2.47;1.27;;;20.90;71.60;;;;;;2514042;55;20981;-68
2023/08/06 00:17:36;;;;;;;3.08;1.40;;;20.90;71.70;;;;;;2514296;55;20998;-67
2023/08/06 00:20:06;;;;;;;2.40;0.93;;;20.90;71.70;;;;;;2514129;55;20919;-68
2023/08/06 00:22:36;;;;;;;5.18;1.30;;;20.90;71.80;;;;;;2513899;55;20934;-69
2023/08/06 00:25:03;;;;;;;2.60;1.20;;;20.90;71.80;;;;;;2281202;56;21545;-67
2023/08/06 00:27:43;;;;;;;2.92;1.33;;;20.80;71.70;;;;;;2514329;55;21058;-65
2023/08/06 00:30:10;;;;;;;3.35;1.55;;;20.90;70.60;;;;;;2281381;56;20970;-67
2023/08/06 00:32:37;;;;;;;2.80;1.45;;;20.80;71.70;;;;;;2281465;56;20931;-68
2023/08/06 00:35:04;;;;;;;3.22;1.60;;;20.80;71.70;;;;;;2512883;55;21022;-69
2023/08/06 00:37:30;;;;;;;3.47;1.40;;;20.80;71.70;;;;;;2510218;55;21857;-69
2023/08/06 00:40:03;;;;;;;3.60;1.55;;;20.80;71.80;;;;;;2276596;56;20971;-68
2023/08/06 00:42:34;;;;;;;3.20;1.42;;;20.80;71.20;;;;;;2276655;56;21010;-68
2023/08/06 00:45:16;;;;;;;2.97;1.40;;;20.80;71.60;;;;;;2508427;55;21038;-68
2023/08/06 00:47:42;;;;;;;2.90;1.37;;;20.80;71.50;;;;;;2508682;55;20986;-67
2023/08/06 00:50:10;;;;;;;3.70;1.45;;;20.80;71.90;;;;;;2508972;55;20943;-70
2023/08/06 00:52:36;;;;;;;3.17;1.58;;;20.80;71.90;;;;;;2508766;55;21049;-68
2023/08/06 00:55:06;;;;;;;4.43;1.37;;;20.80;72.00;;;;;;2277540;56;22100;-66
2023/08/06 00:57:42;;;;;;;3.53;1.20;;;20.80;72.00;;;;;;2509080;55;21962;-67
2023/08/06 01:00:09;;;;;;;6.72;1.20;;;20.80;71.50;;;;;;2273244;56;20975;-69
2023/08/06 01:02:36;;;;;;;2.83;1.30;;;20.80;72.00;;;;;;2506488;55;20958;-69
2023/08/06 01:05:03;;;;;;;2.62;1.20;;;20.80;72.00;;;;;;2277817;56;20990;-68
2023/08/06 01:08:08;;;;;;;3.10;1.30;;;20.80;72.00;;;;;;2281142;56;21956;-70
2023/08/06 01:13:47;;;;;;;2.47;1.20;;;20.70;70.70;;;;;;2281571;56;21002;-68
2023/08/06 01:16:17;;;;;;;2.37;1.12;;;20.80;70.40;;;;;;2514355;55;20966;-69
2023/08/06 01:18:46;;;;;;;2.30;1.05;;;20.70;71.70;;;;;;2280788;56;20966;-69
2023/08/06 01:21:21;;;;;;;1.98;0.95;;;20.70;72.10;;;;;;2514494;55;20963;-68
2023/08/06 01:23:47;;;;;;;3.10;1.17;;;20.70;71.30;;;;;;2508986;55;21456;-67
2023/08/06 01:27:16;;;;;;;2.87;1.20;;;20.70;72.10;;;;;;2484554;55;21026;-67
2023/08/06 01:29:47;;;;;;;2.47;1.10;;;20.70;71.00;;;;;;2281309;56;20994;-69
2023/08/06 01:32:15;;;;;;;2.00;0.90;;;20.70;72.20;;;;;;2280429;56;21010;-68
2023/08/06 01:34:42;;;;;;;3.30;1.40;;;20.70;72.30;;;;;;2281415;56;21014;-67
2023/08/06 01:37:09;;;;;;;2.70;1.30;;;20.70;72.30;;;;;;2513699;55;20934;-68
2023/08/06 01:39:36;;;;;;;3.05;1.15;;;20.60;72.20;;;;;;2514329;55;21305;-68
2023/08/06 01:42:02;;;;;;;2.92;1.27;;;20.70;72.40;;;;;;2514083;55;21007;-68
2023/08/06 01:44:31;;;;;;;3.30;1.40;;;20.60;72.30;;;;;;2280609;56;21393;-67
2023/08/06 01:47:02;;;;;;;3.10;1.45;;;20.60;72.40;;;;;;2513753;55;21061;-67
2023/08/06 01:49:29;;;;;;;3.75;1.40;;;20.60;72.00;;;;;;2281676;56;20942;-68
2023/08/06 01:51:55;;;;;;;3.00;1.30;;;20.60;72.30;;;;;;2514730;55;20990;-69
2023/08/06 01:54:22;;;;;;;4.03;1.35;;;20.60;72.40;;;;;;2514417;55;20946;-68
2023/08/06 01:56:50;;;;;;;3.40;1.50;;;20.60;72.50;;;;;;2280865;56;21305;-68
2023/08/06 01:59:16;;;;;;;3.72;1.50;;;20.60;72.50;;;;;;2280469;56;21297;-69
2023/08/06 02:01:42;;;;;;;5.20;1.37;;;20.60;72.70;;;;;;2512974;55;21018;-70
2023/08/06 02:04:09;;;;;;;3.47;1.30;;;20.60;72.80;;;;;;2281399;56;21745;-71
2023/08/06 02:07:31;;;;;;;3.87;1.60;;;20.60;72.70;;;;;;2514885;55;20946;-67
2023/08/06 02:09:57;;;;;;;3.95;1.35;;;20.60;71.80;;;;;;2281317;56;21055;-70
2023/08/06 02:12:24;;;;;;;4.65;1.52;;;20.60;72.80;;;;;;2281481;56;20946;-70
2023/08/06 02:14:51;;;;;;;3.12;1.40;;;20.60;72.80;;;;;;2266491;56;21055;-70
2023/08/06 02:17:18;;;;;;;2.95;1.15;;;20.60;72.90;;;;;;2502867;55;20939;-68
2023/08/06 02:19:45;;;;;;;2.90;1.10;;;20.50;72.90;;;;;;2514753;55;20951;-69
2023/08/06 02:22:11;;;;;;;5.85;1.50;;;20.50;72.90;;;;;;2514030;55;20942;-69
2023/08/06 02:24:38;;;;;;;3.47;1.10;;;20.50;72.80;;;;;;2281814;56;22031;-67
2023/08/06 02:27:05;;;;;;;2.70;1.17;;;20.50;72.80;;;;;;2281369;56;20954;-67
2023/08/06 02:29:32;;;;;;;4.15;1.12;;;20.50;72.80;;;;;;2506711;55;21079;-71
2023/08/06 02:31:58;;;;;;;2.65;1.30;;;20.50;72.90;;;;;;2258978;56;20958;-67
2023/08/06 02:34:25;;;;;;;3.12;1.48;;;20.40;72.70;;;;;;2281443;56;20954;-70
2023/08/06 02:36:51;;;;;;;3.85;1.35;;;20.40;72.80;;;;;;2513217;55;20958;-69
2023/08/06 02:39:19;;;;;;;2.67;1.25;;;20.40;72.80;;;;;;2279926;56;22142;-68
2023/08/06 02:41:45;;;;;;;2.70;1.10;;;20.30;72.70;;;;;;2511303;55;20962;-69
2023/08/06 02:44:12;;;;;;;2.33;0.90;;;20.30;72.80;;;;;;2279766;56;20954;-70
2023/08/06 02:46:41;;;;;;;3.17;1.40;;;20.30;72.90;;;;;;2280209;56;21044;-68
2023/08/06 02:49:07;;;;;;;4.18;1.30;;;20.20;72.60;;;;;;2279831;56;20950;-68
2023/08/06 02:51:34;;;;;;;2.95;1.15;;;20.20;72.90;;;;;;2512611;55;21443;-68
2023/08/06 02:54:00;;;;;;;3.22;1.35;;;20.20;72.90;;;;;;2512610;55;20954;-68
2023/08/06 02:56:30;;;;;;;2.50;1.00;;;20.10;72.90;;;;;;2511677;55;21598;-68
2023/08/06 02:58:56;;;;;;;2.67;1.08;;;20.10;72.80;;;;;;2478742;55;20961;-70
2023/08/06 03:01:26;;;;;;;2.92;1.17;;;20.10;73.10;;;;;;2270406;56;20908;-68
2023/08/06 03:03:52;;;;;;;2.60;1.10;;;20.10;73.30;;;;;;2469521;55;21057;-68
2023/08/06 03:06:18;;;;;;;3.10;1.08;;;20.00;73.30;;;;;;2468506;56;20972;-68
2023/08/06 03:08:46;;;;;;;2.45;0.93;;;20.00;73.30;;;;;;2468572;56;21005;-69
2023/08/06 03:11:13;;;;;;;2.95;1.00;;;20.00;73.40;;;;;;2469099;56;20989;-68
2023/08/06 03:13:39;;;;;;;2.80;1.20;;;20.00;73.60;;;;;;2469066;56;20997;-69
2023/08/06 03:16:08;;;;;;;2.92;1.00;;;20.00;73.60;;;;;;2468754;56;20949;-70
2023/08/06 03:18:35;;;;;;;2.42;0.80;;;20.00;73.50;;;;;;2243397;56;21005;-70
2023/08/06 03:21:19;;;;;;;2.92;1.12;;;19.90;73.60;;;;;;2243540;56;21014;-69
2023/08/06 03:24:03;;;;;;;2.95;1.00;;;19.90;72.90;;;;;;2469132;56;20992;-70
2023/08/06 03:26:30;;;;;;;3.65;1.00;;;19.90;73.00;;;;;;2469035;56;21031;-70
2023/08/06 03:28:56;;;;;;;4.18;1.27;;;19.90;73.80;;;;;;2256752;56;21059;-70
2023/08/06 03:31:23;;;;;;;2.60;0.98;;;19.90;73.90;;;;;;2268374;56;20936;-69
2023/08/06 03:33:50;;;;;;;3.15;1.12;;;19.90;73.90;;;;;;2269654;56;21050;-68
2023/08/06 03:36:16;;;;;;;3.47;1.10;;;19.90;74.00;;;;;;2270738;56;21776;-69
2023/08/06 03:38:47;;;;;;;2.00;0.80;;;19.90;74.00;;;;;;2502002;55;21057;-70
2023/08/06 03:41:15;;;;;;;1.98;0.80;;;19.90;74.00;;;;;;2501111;55;21050;-69
2023/08/06 03:43:43;;;;;;;2.97;0.80;;;19.90;74.10;;;;;;2270432;56;21090;-70
2023/08/06 03:46:09;;;;;;;2.58;1.05;;;19.90;74.10;;;;;;2500267;55;20959;-68
2023/08/06 03:48:35;;;;;;;1.95;0.80;;;19.90;74.00;;;;;;2441516;55;21448;-69
2023/08/06 03:51:02;;;;;;;2.65;1.30;;;19.80;73.70;;;;;;2236365;57;20982;-69
2023/08/06 03:53:28;;;;;;;2.00;0.70;;;19.80;73.60;;;;;;2237355;56;21069;-69
2023/08/06 03:55:59;;;;;;;1.90;0.60;;;19.70;73.40;;;;;;2439235;55;21076;-68
2023/08/06 03:58:28;;;;;;;3.12;0.90;;;19.80;73.40;;;;;;2475850;55;20938;-72
2023/08/06 04:01:16;;;;;;;2.12;0.77;;;19.70;73.40;;;;;;2256220;56;21063;-70
2023/08/06 04:03:42;;;;;;;1.48;0.65;;;19.70;72.70;;;;;;2490048;55;1227017;-70
2023/08/06 04:06:09;;;;;;;1.85;0.65;;;19.70;73.60;;;;;;2512214;55;21768;-70
2023/08/06 04:08:35;;;;;;;2.80;0.80;;;19.70;73.70;;;;;;2279347;56;21014;-69
2023/08/06 04:11:02;;;;;;;2.15;0.80;;;19.70;73.70;;;;;;2512347;55;20982;-69
2023/08/06 04:13:29;;;;;;;3.03;1.08;;;19.60;73.60;;;;;;2479078;55;21064;-71
2023/08/06 04:16:00;;;;;;;2.45;0.75;;;19.60;73.70;;;;;;2475159;55;21513;-72
2023/08/06 04:18:27;;;;;;;4.00;0.70;;;19.60;73.70;;;;;;2271062;56;20936;-71
2023/08/06 04:20:55;;;;;;;1.98;0.80;;;19.60;73.80;;;;;;2501192;55;25508;-69
2023/08/06 04:23:21;;;;;;;2.12;0.80;;;19.60;73.80;;;;;;2490897;55;21819;-70
2023/08/06 04:25:47;;;;;;;1.75;0.70;;;19.60;73.90;;;;;;2245421;56;20969;-69
2023/08/06 04:28:14;;;;;;;2.20;0.80;;;19.60;74.00;;;;;;2471132;56;21018;-70
2023/08/06 04:30:40;;;;;;;2.05;0.73;;;19.60;74.80;;;;;;2458861;55;20945;-69
2023/08/06 04:33:07;;;;;;;2.35;0.68;;;19.60;74.10;;;;;;2240735;57;21941;-71
2023/08/06 04:35:36;;;;;;;1.75;0.60;;;19.50;74.10;;;;;;2455659;56;20966;-69
2023/08/06 04:38:02;;;;;;;1.98;0.65;;;19.50;73.80;;;;;;2449370;55;20990;-70
2023/08/06 04:40:29;;;;;;;2.10;0.70;;;19.50;74.10;;;;;;2441676;55;21029;-69
2023/08/06 04:42:55;;;;;;;1.87;0.60;;;19.50;74.10;;;;;;2470254;55;21009;-69
2023/08/06 04:45:24;;;;;;;2.12;0.57;;;19.50;74.10;;;;;;2492585;55;20946;-69
2023/08/06 04:47:50;;;;;;;2.10;0.60;;;19.50;74.20;;;;;;2512529;55;21431;-71
2023/08/06 04:50:17;;;;;;;2.00;0.70;;;19.50;74.00;;;;;;2279511;56;20970;-69
2023/08/06 04:52:43;;;;;;;1.85;0.60;;;19.50;74.00;;;;;;2280027;56;21388;-69
2023/08/06 04:55:10;;;;;;;1.73;0.65;;;19.50;73.90;;;;;;2512120;55;21475;-71
2023/08/06 04:57:36;;;;;;;1.90;0.70;;;19.40;73.70;;;;;;2279445;56;21007;-71
2023/08/06 05:00:04;;;;;;;1.67;0.55;;;19.40;73.50;;;;;;2511952;55;21020;-69
2023/08/06 05:02:32;;;;;;;1.65;0.50;;;19.40;73.30;;;;;;2512226;55;21022;-70
2023/08/06 05:04:59;;;;;;;1.90;0.50;;;19.40;73.30;;;;;;2511431;55;20955;-70
2023/08/06 05:07:25;;;;;;;1.80;0.50;;;19.30;73.00;;;;;;2510500;55;21053;-68
2023/08/06 05:09:52;;;;;;;2.12;0.75;;;19.30;73.00;;;;;;2510595;55;21910;-69
2023/08/06 05:12:19;;;;;;;1.50;0.40;;;19.20;72.80;;;;;;2508207;55;21319;-67
2023/08/06 05:14:46;;;;;;;1.92;0.43;;;19.20;72.80;;;;;;2509703;55;21038;-69
2023/08/06 05:17:14;;;;;;;1.73;0.50;;;19.10;72.90;;;;;;2509231;55;20967;-67
2023/08/06 05:19:41;;;;;;;1.27;0.40;;;19.10;72.80;;;;;;2510303;55;20978;-67
2023/08/06 05:22:13;;;;;;;1.92;0.40;;;19.00;72.70;;;;;;2510085;55;21050;-68
2023/08/06 05:24:39;;;;;;;;;;;19.00;72.50;;;;;;2278438;56;21452;-71
2023/08/06 05:27:05;;;;;;;1.55;0.50;;;19.00;71.80;;;;;;2509768;55;20161;-68
2023/08/06 05:29:35;;;;;;;0.70;0.30;;;18.90;72.60;;;;;;2510630;55;20950;-69
2023/08/06 05:32:01;;;;;;;2.58;0.50;;;18.80;72.70;;;;;;2276914;56;21022;-69
2023/08/06 05:34:27;;;;;;;1.05;0.40;;;18.80;72.80;;;;;;2508511;55;21046;-70
2023/08/06 05:36:54;;;;;;;3.03;0.68;;;18.80;73.00;;;;;;2512506;55;21633;-68
2023/08/06 05:39:20;;;;;;;2.75;0.60;;;18.70;73.00;;;;;;2512628;55;20978;-67
2023/08/06 05:41:52;;;;;;;2.00;0.57;;;18.70;73.10;;;;;;2278079;56;21022;-68
2023/08/06 05:44:18;;;;;;;1.75;0.52;;;18.60;73.00;;;;;;2509512;55;21414;-68
2023/08/06 05:46:44;;;;;;;2.60;0.57;;;18.60;73.00;;;;;;2254178;56;21529;-68
2023/08/06 05:49:13;;;;;;;2.92;0.60;;;18.60;73.10;;;;;;2249543;56;20973;-68
2023/08/06 05:51:39;;;;;;;2.42;0.70;;;18.50;73.10;;;;;;2509151;55;21046;-67
2023/08/06 05:54:06;;;;;;;2.37;0.50;;;18.50;73.10;;;;;;2277957;56;20990;-68
2023/08/06 05:56:32;;;;;;;1.48;0.37;;;18.40;73.10;;;;;;2510278;55;20950;-68
2023/08/06 05:58:59;;;;;;;1.80;0.50;;;18.40;73.20;;;;;;2508312;55;21357;-69
2023/08/06 06:01:29;;;;;;;1.80;0.40;;;18.40;73.30;;;;;;2509976;55;21121;-67
2023/08/06 06:03:55;;;;;;;2.35;0.70;;;18.40;73.40;;;;;;2508880;55;20939;-70
2023/08/06 06:06:24;;;;;;;4.55;0.70;;;18.30;73.40;;;;;;2507108;55;21741;-67
2023/08/06 06:08:50;;;;;;;1.87;0.50;;;18.30;73.50;;;;;;2507149;55;21093;-69
2023/08/06 06:11:21;;;;;;;2.47;0.60;;;18.30;73.60;;;;;;2508800;55;21832;-69
2023/08/06 06:13:51;;;;;;;1.35;0.50;;;18.30;73.60;;;;;;2510410;55;21006;-69
2023/08/06 06:16:21;;;;;;;2.10;0.60;;;18.20;73.50;;;;;;2276909;56;21006;-68
2023/08/06 06:18:47;;;;;;;2.33;0.60;;;18.20;73.60;;;;;;2277463;56;21483;-68
2023/08/06 06:21:13;;;;;;;3.15;0.70;;;18.20;73.80;;;;;;2277413;56;21567;-67
2023/08/06 06:23:40;;;;;;;2.92;0.70;;;18.20;73.80;;;;;;2510409;55;21007;-69
2023/08/06 06:26:09;;;;;;;1.85;0.50;;;18.10;73.80;;;;;;2277961;56;20954;-70
2023/08/06 06:28:36;;;;;;;3.20;0.70;;;18.20;74.00;;;;;;2510337;55;21002;-68
2023/08/06 06:31:05;;;;;;;2.78;0.62;;;18.10;73.90;;;;;;2510556;55;20963;-70
2023/08/06 06:33:31;;;;;;;2.53;0.60;;;18.10;73.90;;;;;;2277210;56;21431;-69
2023/08/06 06:35:58;;;;;;;2.83;0.80;;;18.10;73.80;;;;;;2511145;55;20990;-71
2023/08/06 06:38:24;;;;;;;3.67;0.60;;;18.10;73.70;;;;;;2498080;55;21732;-67
2023/08/06 06:40:54;;;;;;;3.03;0.50;;;18.10;73.70;;;;;;2259927;56;20974;-68
2023/08/06 06:43:21;;;;;;;2.53;0.62;;;18.10;73.70;;;;;;2507853;55;20990;-71
2023/08/06 06:45:47;;;;;;;4.90;0.65;;;18.10;73.90;;;;;;2251030;56;21603;-71
2023/08/06 06:48:14;;;;;;;2.87;0.70;;;18.00;73.80;;;;;;2482348;55;21043;-68
2023/08/06 06:50:41;;;;;;;2.72;0.70;;;18.00;74.00;;;;;;2503404;55;21117;-68
2023/08/06 06:53:08;;;;;;;2.55;0.80;;;18.00;74.00;;;;;;2509107;55;21326;-69
2023/08/06 06:55:35;;;;;;;3.70;0.60;;;18.00;74.10;;;;;;2276357;56;21022;-69
2023/08/06 06:58:03;;;;;;;2.30;0.50;;;18.00;74.00;;;;;;2251228;56;21026;-70
2023/08/06 07:00:29;;;;;;;2.40;0.60;;;18.00;74.80;;;;;;2276714;56;22437;-71
2023/08/06 07:02:56;;;;;;;2.67;0.70;;;18.00;74.10;;;;;;2276884;56;20966;-68
2023/08/06 07:05:22;;;;;;;2.15;0.55;;;17.90;74.00;;;;;;2507432;55;21034;-70
2023/08/06 07:07:49;;;;;;;2.42;0.60;;;17.90;74.10;;;;;;2277857;56;20954;-68
2023/08/06 07:10:15;;;;;;;2.37;0.50;;;17.90;74.10;;;;;;2509623;55;20970;-69
2023/08/06 07:12:42;;;;;;;3.05;0.80;;;17.90;74.20;;;;;;2279374;56;21089;-70
2023/08/06 07:15:09;;;;;;;2.53;0.82;;;17.90;74.20;;;;;;2249295;57;20991;-71
2023/08/06 07:17:36;;;;;;;2.45;0.52;;;17.90;74.30;;;;;;2509796;55;21210;-69
2023/08/06 07:20:20;;;;;;;1.83;0.60;;;17.90;74.40;;;;;;2510060;55;21419;-70
2023/08/06 07:22:47;;;;;;;2.35;0.60;;;17.90;74.00;;;;;;2506404;55;20954;-69
2023/08/06 07:25:14;;;;;;;4.05;0.93;;;17.90;74.50;;;;;;2506054;55;21581;-68
2023/08/06 07:27:40;;;;;;;2.92;0.57;;;18.00;74.70;;;;;;2275061;56;20974;-70
2023/08/06 07:30:07;;;;;;;1.80;0.50;;;17.80;74.50;;;;;;2275498;56;21031;-68
2023/08/06 07:32:36;;;;;;;2.95;0.68;;;17.90;74.70;;;;;;2252868;56;22464;-68
2023/08/06 07:35:05;;;;;;;1.73;0.57;;;17.90;74.80;;;;;;2274413;56;21077;-71
2023/08/06 07:37:31;;;;;;;1.87;0.47;;;17.90;74.90;;;;;;2276299;56;21010;-70
2023/08/06 07:39:58;;;;;;;2.10;0.60;;;17.90;75.10;;;;;;2508622;55;21566;-69
2023/08/06 07:42:25;;;;;;;1.65;0.60;;;17.90;75.20;;;;;;2509097;55;21391;-71
2023/08/06 07:44:54;;;;;;;2.92;0.60;;;18.00;75.40;;;;;;2509257;55;21408;-71
2023/08/06 07:47:22;;;;;;;3.42;0.55;;;18.00;75.30;;;;;;2276000;56;20966;-69
2023/08/06 07:49:49;;;;;;;3.75;0.73;;;18.00;75.40;;;;;;2508254;55;21062;-72
2023/08/06 07:52:16;;;;;;;2.15;0.50;;;18.00;75.40;;;;;;2276937;56;20934;-69
2023/08/06 07:54:43;;;;;;;2.22;0.43;;;18.00;75.40;;;;;;2278582;56;22041;-68
2023/08/06 07:57:10;;;;;;;0.82;0.40;;;18.00;75.50;;;;;;2509772;55;20962;-70
2023/08/06 07:59:37;;;;;;;1.90;0.40;;;18.10;75.50;;;;;;2509752;55;21010;-70
2023/08/06 08:02:05;;;;;;;2.33;0.50;;;18.10;75.40;;;;;;2508581;55;20967;-69
2023/08/06 08:04:31;;;;;;;1.17;0.30;;;18.10;75.40;;;;;;2275399;56;20974;-70
2023/08/06 08:06:58;;;;;;;1.60;0.40;;;18.10;75.40;;;;;;2274950;56;20970;-70
2023/08/06 08:09:25;;;;;;;1.30;0.40;;;18.20;75.40;;;;;;2506144;55;21018;-69
2023/08/06 08:11:52;;;;;;;1.35;0.40;;;18.20;75.20;;;;;;2504888;55;20986;-70
2023/08/06 08:14:19;;;;;;;1.40;0.37;;;18.20;75.20;;;;;;2488195;55;21794;-70
2023/08/06 08:16:46;;;;;;;1.55;0.50;;;18.20;75.10;;;;;;2488373;55;21010;-69
2023/08/06 08:19:12;;;;;;;0.60;0.20;;;18.20;75.10;;;;;;2471022;55;21018;-67
2023/08/06 08:21:42;;;;;;;0.93;0.40;;;18.30;75.80;;;;;;2504953;55;21271;-69
2023/08/06 08:24:09;;;;;;;1.05;0.32;;;18.30;75.10;;;;;;2275007;56;20935;-67
2023/08/06 08:26:36;;;;;;;3.30;0.60;;;18.30;75.00;;;;;;2506253;55;20938;-69
2023/08/06 08:29:07;;;;;;;0.90;0.22;;;18.30;75.10;;;;;;2475526;55;20972;-68
2023/08/06 08:31:38;;;;;;;1.77;0.52;;;18.30;75.00;;;;;;2271316;56;22052;-68
2023/08/06 08:34:05;;;;;;;1.73;0.43;;;18.30;75.10;;;;;;2504140;55;21972;-67
2023/08/06 08:36:32;;;;;;;1.15;0.50;;;18.30;75.10;;;;;;2273411;56;21043;-68
2023/08/06 08:39:01;;;;;;;2.30;0.37;;;18.30;75.10;;;;;;2505494;55;20963;-69
2023/08/06 08:41:31;;;;;;;1.12;0.30;;;18.30;75.10;;;;;;2505364;55;21460;-68
2023/08/06 08:44:40;;;;;;;1.20;0.40;;;18.30;75.10;;;;;;2274152;56;20986;-68
2023/08/06 08:47:10;;;;;;;0.60;0.30;;;18.30;74.70;;;;;;2273320;56;21026;-68
2023/08/06 08:49:38;;;;;;;0.40;0.25;;;18.40;75.20;;;;;;2478246;55;20997;-68
2023/08/06 08:52:10;;;;;;;0.77;0.30;;;18.40;75.30;;;;;;2506255;55;21110;-68
2023/08/06 08:54:37;;;;;;;0.85;0.30;;;18.40;75.40;;;;;;2271943;56;21124;-68
2023/08/06 08:57:06;;;;;;;0.60;0.20;;;18.40;75.50;;;;;;2506047;55;21483;-69
2023/08/06 08:59:34;;;;;;;1.75;0.30;;;18.40;75.50;;;;;;2505011;55;21028;-70
2023/08/06 09:02:01;;;;;;;0.35;0.20;;;18.40;75.40;;;;;;2501370;55;20965;-69
2023/08/06 09:04:32;;;;;;;1.70;0.47;;;18.50;75.50;;;;;;2272960;56;21689;-70
2023/08/06 09:07:00;;;;;;;1.02;0.25;;;18.50;75.60;;;;;;2501599;55;21531;-69
2023/08/06 09:09:30;;;;;;;0.30;0.15;;;18.50;75.60;;;;;;2446473;56;21371;-68
2023/08/06 09:12:01;;;;;;;0.43;0.10;;;18.50;75.70;;;;;;2492401;55;21360;-69
2023/08/06 09:14:27;;;;;;;0.50;0.20;;;18.60;75.70;;;;;;2500024;55;21022;-68
2023/08/06 09:16:58;;;;;;;1.98;0.20;;;18.60;75.90;;;;;;2265902;56;21558;-67
2023/08/06 09:19:26;;;;;;;0.68;0.20;;;18.60;75.80;;;;;;2231245;56;20985;-68
2023/08/06 09:21:55;;;;;;;0.70;0.28;;;18.60;75.90;;;;;;2455671;56;21595;-70
2023/08/06 09:24:22;;;;;;;0.55;0.20;;;18.70;75.90;;;;;;2456740;56;21020;-71
2023/08/06 09:26:48;;;;;;;0.25;0.20;;;18.70;75.90;;;;;;2455313;56;20983;-69
2023/08/06 09:29:25;;;;;;;0.43;0.10;;;18.70;75.80;;;;;;2453081;56;21523;-69
2023/08/06 09:31:52;;;;;;;0.55;0.25;;;18.70;75.40;;;;;;2235467;56;20975;-70
2023/08/06 09:34:22;;;;;;;0.40;0.20;;;18.80;75.90;;;;;;2417108;56;20979;-68
2023/08/06 09:36:53;;;;;;;0.20;0.10;;;18.80;75.90;;;;;;2235465;56;21503;-69
2023/08/06 09:39:21;;;;;;;0.75;0.30;;;18.80;75.70;;;;;;2458100;55;20930;-70
2023/08/06 09:41:48;;;;;;;0.50;0.08;;;18.80;75.70;;;;;;2239366;56;20974;-68
2023/08/06 09:44:23;;;;;;;2.37;0.25;;;18.80;75.70;;;;;;2494856;55;21741;-67
2023/08/06 09:46:52;;;;;;;0.32;0.20;;;18.90;75.90;;;;;;2490947;55;20995;-69
2023/08/06 09:49:20;;;;;;;0.85;0.30;;;18.90;75.90;;;;;;2460952;55;21013;-67
2023/08/06 09:51:53;;;;;;;0.95;0.40;;;18.80;75.80;;;;;;2214960;56;22235;-68
2023/08/06 09:54:31;;;;;;;0.28;0.20;;;19.00;75.90;;;;;;2368687;56;22112;-67
2023/08/06 09:56:59;;;;;;;0.50;0.20;;;19.00;75.70;;;;;;2199060;56;22156;-68
2023/08/06 09:59:32;;;;;;;0.80;0.50;;;19.00;75.70;;;;;;2161236;56;21451;-68
2023/08/06 10:01:59;;;;;;;;;;;19.00;75.40;;;;;;2373404;56;21839;-67
2023/08/06 10:04:40;;;;;;;0.50;0.20;;;19.10;74.60;;;;;;2331172;56;20709;-68
2023/08/06 10:07:12;;;;;;;0.20;0.10;;;19.10;75.30;;;;;;2138555;56;22138;-67
2023/08/06 10:10:10;;;;;;;0.10;0.10;;;19.10;75.20;;;;;;2359173;55;22269;-68
2023/08/06 10:12:50;;;;;;;0.28;0.10;;;19.10;75.30;;;;;;2379680;55;21025;-68
2023/08/06 10:15:31;;;;;;;0.17;0.10;;;19.10;75.10;;;;;;2398829;55;21851;-70
2023/08/06 10:18:00;;;;;;;0.10;0.10;;;19.00;74.70;;;;;;2148107;57;21183;-67
2023/08/06 10:20:26;;;;;;;0.93;0.43;;;19.20;75.30;;;;;;2387702;56;20973;-68
2023/08/06 10:23:20;;;;;;;0.13;0.13;;;19.20;75.30;;;;;;2184997;57;21824;-70
2023/08/06 10:26:02;;;;;;;0.55;0.20;;;19.20;74.70;;;;;;2436934;55;22404;-69
2023/08/06 10:28:38;;;;;;;0.17;0.15;;;19.20;75.00;;;;;;2207794;56;21912;-69
2023/08/06 10:31:07;;;;;;;1.12;0.10;;;19.20;75.10;;;;;;2396795;55;21484;-69
2023/08/06 10:34:12;;;;;;;0.40;0.20;;;19.20;75.00;;;;;;2174182;56;21667;-70
2023/08/06 10:37:12;;;;;;;0.40;0.20;;;19.30;74.20;;;;;;2381568;56;20993;-67
2023/08/06 10:40:35;;;;;;;0.50;0.28;;;19.30;75.00;;;;;;2395296;56;21010;-68
2023/08/06 10:43:44;;;;;;;0.95;0.40;;;19.20;73.70;;;;;;2372231;56;21623;-69
2023/08/06 10:59:25;;;;;;;1.50;0.70;;;19.30;73.70;;;;;;2471787;53;23190;-70
2023/08/06 11:01:55;;;;;;;1.15;0.52;;;19.20;74.10;;;;;;2467522;55;20976;-70
2023/08/06 11:04:30;;;;;;;1.73;0.73;;;19.30;73.60;;;;;;2258216;56;20947;-70
2023/08/06 11:07:03;;;;;;;1.85;0.60;;;19.30;73.20;;;;;;2427563;56;21054;-70
2023/08/06 11:09:31;;;;;;;1.85;0.80;;;19.30;72.90;;;;;;2438037;55;20977;-70
2023/08/06 11:12:01;;;;;;;3.28;1.05;;;19.30;73.00;;;;;;2481612;55;20987;-69
2023/08/06 11:14:32;;;;;;;2.70;1.25;;;19.30;72.80;;;;;;2460945;55;20980;-69
2023/08/06 11:16:59;;;;;;;2.80;1.15;;;19.20;72.70;;;;;;2425909;56;21001;-70
2023/08/06 11:19:33;;;;;;;2.50;1.00;;;19.20;73.00;;;;;;2430884;56;21101;-70
2023/08/06 11:22:01;;;;;;;2.08;0.88;;;19.20;73.00;;;;;;2448543;55;20973;-68
2023/08/06 11:24:32;;;;;;;1.87;0.80;;;19.20;73.30;;;;;;2486713;55;21029;-69
2023/08/06 11:27:01;;;;;;;2.28;0.95;;;19.10;73.20;;;;;;2487453;55;21516;-70
2023/08/06 11:29:41;;;;;;;1.73;0.70;;;19.10;73.30;;;;;;2486983;55;21040;-70
2023/08/06 11:32:14;;;;;;;1.45;0.70;;;19.10;73.20;;;;;;2487041;55;20960;-71
2023/08/06 11:34:43;;;;;;;2.10;0.82;;;19.10;73.40;;;;;;2417498;55;21011;-68
2023/08/06 11:37:11;;;;;;;1.58;0.60;;;19.10;73.80;;;;;;2432929;55;21480;-68
2023/08/06 11:39:51;;;;;;;0.98;0.47;;;19.10;73.90;;;;;;2217388;56;21676;-67
2023/08/06 11:42:21;;;;;;;1.42;0.50;;;19.10;73.40;;;;;;2438833;55;21095;-70
2023/08/06 11:45:05;;;;;;;0.95;0.30;;;19.10;73.70;;;;;;2446404;55;21442;-69
2023/08/06 11:47:53;;;;;;;0.88;0.35;;;19.10;73.30;;;;;;2448705;55;21049;-69
2023/08/06 11:50:36;;;;;;;1.55;0.47;;;19.10;73.10;;;;;;2222595;56;20956;-71
2023/08/06 11:53:15;;;;;;;0.95;0.35;;;19.10;73.30;;;;;;2449842;55;21092;-69
2023/08/06 11:55:42;;;;;;;1.17;0.30;;;19.10;73.30;;;;;;2216795;56;21545;-68
2023/08/06 11:58:14;;;;;;;0.55;0.30;;;19.10;73.60;;;;;;2223986;56;20992;-68
2023/08/06 12:00:52;;;;;;;1.23;0.50;;;19.10;73.40;;;;;;2448390;55;21486;-71
2023/08/06 12:03:27;;;;;;;1.58;0.50;;;19.10;73.60;;;;;;2436557;55;21477;-69
2023/08/06 12:07:12;;;;;;;0.65;0.30;;;19.10;73.30;;;;;;2410679;55;21044;-66
2023/08/06 12:09:44;;;;;;;0.60;0.30;;;19.10;72.30;;;;;;2204166;56;20956;-68
2023/08/06 12:13:13;;;;;;;;;;;;;;;;;;;;;
2023/08/06 12:17:25;;;;;;;0.62;0.30;;;19.10;72.50;;;;;;2164049;57;21008;-69
2023/08/06 12:20:35;;;;;;;0.43;0.25;;;19.10;72.20;;;;;;2413307;55;21076;-68
2023/08/06 12:23:56;;;;;;;0.45;0.20;;;19.10;72.50;;;;;;2373584;55;22266;-68
2023/08/06 12:28:09;;;;;;;;;;;;;;;;;;;;;
2023/08/06 12:34:07;;;;;;;1.02;0.40;;;19.10;71.90;;;;;;2433812;55;22471;-71
2023/08/06 12:37:06;;;;;;;1.45;0.57;;;19.20;72.30;;;;;;2412886;55;21653;-70
2023/08/06 12:39:38;;;;;;;0.90;0.40;;;19.10;73.00;;;;;;2193016;59;22101;-69
2023/08/06 12:42:16;;;;;;;1.67;0.50;;;19.10;73.00;;;;;;2197495;59;21683;-67
2023/08/06 12:45:06;;;;;;;1.10;0.43;;;19.10;73.10;;;;;;2413355;55;21134;-68
2023/08/06 12:47:35;;;;;;;1.15;0.50;;;19.10;72.50;;;;;;2395936;55;21668;-67
2023/08/06 12:50:05;;;;;;;1.10;0.40;;;19.10;73.40;;;;;;2183004;56;21607;-66
2023/08/06 12:52:43;;;;;;;1.25;0.50;;;19.10;73.50;;;;;;2391947;55;21721;-67
2023/08/06 12:55:11;;;;;;;0.88;0.37;;;19.10;73.50;;;;;;2420493;55;20937;-67
2023/08/06 12:57:41;;;;;;;2.12;0.40;;;19.10;74.00;;;;;;2221014;56;21605;-68
2023/08/06 13:00:12;;;;;;;1.17;0.40;;;19.10;74.00;;;;;;2440262;55;22405;-68
2023/08/06 13:02:44;;;;;;;1.77;0.40;;;19.10;74.20;;;;;;2425465;55;21644;-69
2023/08/06 13:05:15;;;;;;;0.90;0.50;;;19.20;74.10;;;;;;2403801;55;22336;-68
2023/08/06 13:07:43;;;;;;;1.83;0.60;;;19.20;74.10;;;;;;2415086;55;22122;-67
2023/08/06 13:10:13;;;;;;;1.45;0.60;;;19.20;74.40;;;;;;2429653;55;21539;-68
2023/08/06 13:12:54;;;;;;;2.60;0.70;;;19.20;74.00;;;;;;2431390;55;21537;-68
2023/08/06 13:15:21;;;;;;;1.92;0.70;;;19.30;73.20;;;;;;2442635;55;20997;-68
2023/08/06 13:18:09;;;;;;;1.42;0.65;;;19.30;73.90;;;;;;2236426;56;21848;-70
2023/08/06 13:20:40;;;;;;;1.58;0.55;;;19.30;72.80;;;;;;2461066;55;20933;-72
2023/08/06 13:23:06;;;;;;;1.55;0.52;;;19.40;73.70;;;;;;2234599;56;20964;-68
2023/08/06 13:25:37;;;;;;;1.08;0.50;;;19.40;73.70;;;;;;2458706;55;20936;-68
2023/08/06 13:28:09;;;;;;;1.50;0.50;;;19.40;73.60;;;;;;2234011;56;22063;-69
2023/08/06 13:30:50;;;;;;;1.15;0.40;;;19.40;73.40;;;;;;2231322;56;21609;-68
2023/08/06 13:33:17;;;;;;;1.80;0.50;;;19.40;72.50;;;;;;2443948;55;21826;-67